createdAt,value
2019-01-25T00:01:32.415Z,1.00
2019-01-25T00:04:07.267Z,1.10
2019-01-25T00:06:42.004Z,1.10
2019-01-25T00:09:16.762Z,1.10
2019-01-25T00:11:51.660Z,1.10
2019-01-25T00:14:26.395Z,1.10
2019-01-25T00:17:01.397Z,1.10
2019-01-25T00:19:36.198Z,1.00
2019-01-25T00:22:11.011Z,1.10
2019-01-25T00:24:45.742Z,1.10
2019-01-25T00:27:20.668Z,1.00
2019-01-25T00:29:55.492Z,1.10
2019-01-25T00:32:30.292Z,1.10
2019-01-25T00:35:06.799Z,1.10
2019-01-25T00:37:41.615Z,1.00
2019-01-25T00:40:18.420Z,0.80
2019-01-25T00:42:53.219Z,0.80
2019-01-25T00:45:27.962Z,0.70
2019-01-25T00:48:02.694Z,0.50
2019-01-25T00:50:37.434Z,0.30
2019-01-25T00:53:12.312Z,0.40
2019-01-25T00:55:47.128Z,0.50
2019-01-25T00:58:21.939Z,0.50
2019-01-25T01:00:57.859Z,0.20
2019-01-25T01:03:32.735Z,0.20
2019-01-25T01:06:07.559Z,0.10
2019-01-25T01:08:42.435Z,0.00
2019-01-25T01:11:17.242Z,0.00
2019-01-25T01:13:52.043Z,0.00
2019-01-25T01:16:26.960Z,0.00
2019-01-25T01:19:02.007Z,0.00
2019-01-25T01:21:36.823Z,-0.10
2019-01-25T01:24:11.551Z,0.00
2019-01-25T01:26:46.467Z,-0.10
2019-01-25T01:29:21.208Z,0.00
2019-01-25T01:31:56.030Z,0.00
2019-01-25T01:34:30.823Z,0.00
2019-01-25T01:37:05.815Z,-0.10
2019-01-25T01:39:40.534Z,0.00
2019-01-25T01:42:15.436Z,0.00
2019-01-25T01:44:51.122Z,0.00
2019-01-25T01:47:26.140Z,0.00
2019-01-25T01:50:01.837Z,0.00
2019-01-25T01:52:37.740Z,0.10
2019-01-25T01:55:12.635Z,0.10
2019-01-25T01:57:47.474Z,0.10
2019-01-25T02:00:26.538Z,0.20
2019-01-25T02:03:01.379Z,0.20
2019-01-25T02:05:36.276Z,0.20
2019-01-25T02:08:13.172Z,0.20
2019-01-25T02:10:47.981Z,0.30
2019-01-25T02:13:22.818Z,0.10
2019-01-25T02:15:58.684Z,0.00
2019-01-25T02:18:33.579Z,0.00
2019-01-25T02:21:08.751Z,0.10
2019-01-25T02:23:43.564Z,0.10
2019-01-25T02:26:18.436Z,0.10
2019-01-25T02:28:54.434Z,0.20
2019-01-25T02:31:29.313Z,0.20
2019-01-25T02:34:04.129Z,0.20
2019-01-25T02:36:39.007Z,0.20
2019-01-25T02:39:13.832Z,0.00
2019-01-25T02:41:48.712Z,0.10
2019-01-25T02:44:23.451Z,0.00
2019-01-25T02:46:58.256Z,0.00
2019-01-25T02:49:33.008Z,0.00
2019-01-25T02:52:07.735Z,0.00
2019-01-25T02:54:42.589Z,0.10
2019-01-25T02:57:17.316Z,0.10
2019-01-25T02:59:52.137Z,0.10
2019-01-25T03:02:27.852Z,0.10
2019-01-25T03:05:02.698Z,0.00
2019-01-25T03:07:37.593Z,-0.10
2019-01-25T03:10:12.684Z,-0.10
2019-01-25T03:12:47.571Z,-0.10
2019-01-25T03:15:24.652Z,0.00
2019-01-25T03:17:59.380Z,-0.10
2019-01-25T03:20:34.158Z,-0.20
2019-01-25T03:23:09.025Z,-0.20
2019-01-25T03:25:44.000Z,-0.10
2019-01-25T03:28:18.745Z,-0.10
2019-01-25T03:30:53.564Z,-0.20
2019-01-25T03:33:28.468Z,-0.20
2019-01-25T03:36:03.336Z,-0.20
2019-01-25T03:38:39.079Z,-0.20
2019-01-25T03:41:13.975Z,-0.20
2019-01-25T03:43:49.787Z,-0.20
2019-01-25T03:46:24.675Z,-0.30
2019-01-25T03:48:59.573Z,-0.20
2019-01-25T03:51:35.376Z,-0.20
2019-01-25T03:54:10.282Z,-0.20
2019-01-25T03:56:45.031Z,-0.20
2019-01-25T03:59:19.885Z,-0.20
2019-01-25T04:01:54.788Z,-0.20
2019-01-25T04:04:29.545Z,-0.20
2019-01-25T04:07:04.569Z,-0.30
2019-01-25T04:09:39.372Z,-0.20
2019-01-25T04:12:14.210Z,-0.30
2019-01-25T04:14:49.105Z,-0.30
2019-01-25T04:17:23.992Z,-0.20
2019-01-25T04:19:58.803Z,-0.30
2019-01-25T04:22:33.711Z,-0.30
2019-01-25T04:25:10.692Z,-0.20
2019-01-25T04:27:45.700Z,-0.20
2019-01-25T04:30:22.643Z,-0.30
2019-01-25T04:32:57.645Z,-0.40
2019-01-25T04:35:32.385Z,-0.40
2019-01-25T04:38:07.291Z,-0.50
2019-01-25T04:40:43.197Z,-0.50
2019-01-25T04:43:18.035Z,-0.40
2019-01-25T04:45:52.793Z,-0.50
2019-01-25T04:48:27.643Z,-0.50
2019-01-25T04:51:07.824Z,-0.50
2019-01-25T04:53:42.732Z,-0.40
2019-01-25T04:56:17.554Z,-0.50
2019-01-25T04:58:52.385Z,-0.50
2019-01-25T05:01:27.281Z,-0.50
2019-01-25T05:04:02.399Z,-0.50
2019-01-25T05:06:37.300Z,-0.60
2019-01-25T05:09:12.203Z,-0.60
2019-01-25T05:11:47.092Z,-0.60
2019-01-25T05:14:21.923Z,-0.50
2019-01-25T05:16:57.801Z,-0.40
2019-01-25T05:19:39.100Z,-0.40
2019-01-25T05:22:13.991Z,-0.40
2019-01-25T05:24:48.748Z,-0.30
2019-01-25T05:27:23.673Z,-0.30
2019-01-25T05:29:58.625Z,-0.30
2019-01-25T05:32:33.391Z,-0.40
2019-01-25T05:35:08.296Z,-0.40
2019-01-25T05:37:43.116Z,-0.40
2019-01-25T05:40:23.499Z,-0.40
2019-01-25T05:42:58.263Z,-0.30
2019-01-25T05:45:33.151Z,-0.30
2019-01-25T05:48:08.064Z,-0.40
2019-01-25T05:50:42.934Z,-0.40
2019-01-25T05:53:17.888Z,-0.30
2019-01-25T05:55:53.671Z,-0.30
2019-01-25T05:58:28.564Z,-0.30
2019-01-25T06:01:03.842Z,-0.20
2019-01-25T06:03:38.776Z,-0.20
2019-01-25T06:06:21.066Z,-0.30
2019-01-25T06:08:56.008Z,-0.30
2019-01-25T06:11:35.488Z,-0.30
2019-01-25T06:14:08.075Z,-0.20
2019-01-25T06:16:42.964Z,-0.30
2019-01-25T06:19:17.968Z,-0.30
2019-01-25T06:21:55.602Z,-0.30
2019-01-25T06:24:30.550Z,-0.30
2019-01-25T06:27:05.634Z,-0.30
2019-01-25T06:29:40.560Z,-0.30
2019-01-25T06:32:16.666Z,-0.30
2019-01-25T06:34:51.542Z,-0.10
2019-01-25T06:37:26.435Z,-0.10
2019-01-25T06:40:01.187Z,-0.10
2019-01-25T06:42:36.079Z,-0.10
2019-01-25T06:45:11.016Z,-0.10
2019-01-25T06:47:45.907Z,0.00
2019-01-25T06:50:20.743Z,-0.10
2019-01-25T06:52:55.623Z,-0.10
2019-01-25T06:55:30.539Z,-0.10
2019-01-25T06:58:24.924Z,0.00
2019-01-25T07:01:21.652Z,0.00
2019-01-25T07:03:56.583Z,0.00
2019-01-25T07:06:31.399Z,0.10
2019-01-25T07:09:09.622Z,0.00
2019-01-25T07:11:51.238Z,0.10
2019-01-25T07:14:20.825Z,0.10
2019-01-25T07:16:55.622Z,0.10
2019-01-25T07:19:30.526Z,0.00
2019-01-25T07:22:05.427Z,0.10
2019-01-25T07:24:40.255Z,0.00
2019-01-25T07:27:15.064Z,0.00
2019-01-25T07:29:49.939Z,0.00
2019-01-25T07:32:24.978Z,0.10
2019-01-25T07:34:59.726Z,0.10
2019-01-25T07:37:34.546Z,0.10
2019-01-25T07:40:09.599Z,0.10
2019-01-25T07:42:44.476Z,0.20
2019-01-25T07:45:19.434Z,0.20
2019-01-25T07:47:54.399Z,0.10
2019-01-25T07:50:29.231Z,0.20
2019-01-25T07:53:04.149Z,0.20
2019-01-25T07:55:39.053Z,0.10
2019-01-25T07:58:13.892Z,0.20
2019-01-25T08:00:48.859Z,0.20
2019-01-25T08:03:23.709Z,0.30
2019-01-25T08:05:58.587Z,0.30
2019-01-25T08:08:33.400Z,0.30
2019-01-25T08:11:08.237Z,0.30
2019-01-25T08:13:43.145Z,0.30
2019-01-25T08:16:18.093Z,0.30
2019-01-25T08:18:53.957Z,0.30
2019-01-25T08:21:28.911Z,0.30
2019-01-25T08:24:03.801Z,0.40
2019-01-25T08:26:39.246Z,0.50
2019-01-25T08:29:14.423Z,0.50
2019-01-25T08:31:49.423Z,0.50
2019-01-25T08:34:24.279Z,0.50
2019-01-25T08:36:59.035Z,0.50
2019-01-25T08:39:34.036Z,0.60
2019-01-25T08:42:15.236Z,0.50
2019-01-25T08:44:45.450Z,0.50
2019-01-25T08:47:20.396Z,0.60
2019-01-25T08:49:57.914Z,0.60
2019-01-25T08:52:32.842Z,0.70
2019-01-25T08:55:08.037Z,0.80
2019-01-25T08:57:43.052Z,0.80
2019-01-25T09:00:19.800Z,0.80
2019-01-25T09:02:54.716Z,0.80
2019-01-25T09:05:29.612Z,0.90
2019-01-25T09:08:04.499Z,0.80
2019-01-25T09:10:40.363Z,0.90
2019-01-25T09:13:15.183Z,0.80
2019-01-25T09:15:50.063Z,0.80
2019-01-25T09:18:24.879Z,0.80
2019-01-25T09:20:59.694Z,0.90
2019-01-25T09:23:34.512Z,0.90
2019-01-25T09:26:09.427Z,0.90
2019-01-25T09:28:44.251Z,1.00
2019-01-25T09:31:19.079Z,1.10
2019-01-25T09:33:53.988Z,1.10
2019-01-25T09:36:28.884Z,1.20
2019-01-25T09:39:05.543Z,1.20
2019-01-25T09:41:40.291Z,1.20
2019-01-25T09:44:15.099Z,1.20
2019-01-25T09:46:49.991Z,1.30
2019-01-25T09:49:24.795Z,1.30
2019-01-25T09:51:59.551Z,1.20
2019-01-25T09:54:34.303Z,1.30
2019-01-25T09:57:09.134Z,1.20
2019-01-25T09:59:43.935Z,1.20
2019-01-25T10:02:18.765Z,1.10
2019-01-25T10:04:54.040Z,1.20
2019-01-25T10:07:29.056Z,1.20
2019-01-25T10:10:04.048Z,1.20
2019-01-25T10:12:43.251Z,1.20
2019-01-25T10:15:17.439Z,1.20
2019-01-25T10:17:52.331Z,1.20
2019-01-25T10:20:27.257Z,1.20
2019-01-25T10:23:02.072Z,1.20
2019-01-25T10:25:36.879Z,1.20
2019-01-25T10:28:11.763Z,1.30
2019-01-25T10:30:46.659Z,1.40
2019-01-25T10:33:21.497Z,1.50
2019-01-25T10:35:56.459Z,1.50
2019-01-25T10:38:31.455Z,1.50
2019-01-25T10:41:06.347Z,1.40
2019-01-25T10:43:41.167Z,1.40
2019-01-25T10:46:15.978Z,1.50
2019-01-25T10:48:50.923Z,1.50
2019-01-25T10:51:25.810Z,1.50
2019-01-25T10:54:00.627Z,1.50
2019-01-25T10:56:35.512Z,1.50
2019-01-25T10:59:10.259Z,1.50
2019-01-25T11:01:45.212Z,1.60
2019-01-25T11:04:20.146Z,1.70
2019-01-25T11:06:55.851Z,1.70
2019-01-25T11:09:30.603Z,1.70
2019-01-25T11:12:06.524Z,1.70
2019-01-25T11:14:41.343Z,1.60
2019-01-25T11:17:16.083Z,1.60
2019-01-25T11:19:50.974Z,1.60
2019-01-25T11:22:25.784Z,1.70
2019-01-25T11:25:00.603Z,1.70
2019-01-25T11:27:35.415Z,1.70
2019-01-25T11:30:11.754Z,1.70
2019-01-25T11:32:46.628Z,1.80
2019-01-25T11:35:21.612Z,1.70
2019-01-25T11:37:56.523Z,1.80
2019-01-25T11:40:40.039Z,1.80
2019-01-25T11:43:15.765Z,1.80
2019-01-25T11:45:54.330Z,1.90
2019-01-25T11:48:27.155Z,1.90
2019-01-25T11:51:02.053Z,2.00
2019-01-25T11:53:36.865Z,2.00
2019-01-25T11:56:11.679Z,2.00
2019-01-25T11:58:46.419Z,2.00
2019-01-25T12:01:21.227Z,2.00
2019-01-25T12:03:56.060Z,2.00
2019-01-25T12:06:30.787Z,2.00
2019-01-25T12:09:08.745Z,2.00
2019-01-25T12:11:43.516Z,1.90
2019-01-25T12:14:18.254Z,1.90
2019-01-25T12:16:53.145Z,1.90
2019-01-25T12:19:27.971Z,1.90
2019-01-25T12:22:02.811Z,1.90
2019-01-25T12:24:37.651Z,2.00
2019-01-25T12:27:12.469Z,1.90
2019-01-25T12:29:47.365Z,2.00
2019-01-25T12:32:22.263Z,1.90
2019-01-25T12:34:57.007Z,1.90
2019-01-25T12:37:31.867Z,2.00
2019-01-25T12:40:07.796Z,1.90
2019-01-25T12:42:42.691Z,2.00
2019-01-25T12:45:19.875Z,2.00
2019-01-25T12:47:55.738Z,2.10
2019-01-25T12:50:49.310Z,2.00
2019-01-25T12:53:25.208Z,2.00
2019-01-25T12:56:00.099Z,2.00
2019-01-25T12:58:34.979Z,2.00
2019-01-25T13:01:10.203Z,2.00
2019-01-25T13:03:45.039Z,2.00
2019-01-25T13:06:19.976Z,2.10
2019-01-25T13:08:54.784Z,2.10
2019-01-25T13:11:29.667Z,2.10
2019-01-25T13:14:04.588Z,2.10
2019-01-25T13:16:39.377Z,2.10
2019-01-25T13:19:14.188Z,2.10
2019-01-25T13:21:48.947Z,2.00
2019-01-25T13:24:23.927Z,2.10
2019-01-25T13:26:58.976Z,2.10
2019-01-25T13:29:33.802Z,2.20
2019-01-25T13:32:08.700Z,2.20
2019-01-25T13:34:43.631Z,2.20
2019-01-25T13:37:18.511Z,2.20
2019-01-25T13:39:53.383Z,2.10
2019-01-25T13:42:28.268Z,2.20
2019-01-25T13:45:03.288Z,2.10
2019-01-25T13:47:38.167Z,2.10
2019-01-25T13:50:15.062Z,2.10
2019-01-25T13:52:49.944Z,2.10
2019-01-25T13:55:25.053Z,2.20
2019-01-25T13:58:00.029Z,2.20
2019-01-25T14:00:35.232Z,2.20
2019-01-25T14:03:09.968Z,2.20
2019-01-25T14:05:44.807Z,2.20
2019-01-25T14:08:19.941Z,2.20
2019-01-25T14:10:54.703Z,2.20
2019-01-25T14:13:34.101Z,2.30
2019-01-25T14:16:06.432Z,2.40
2019-01-25T14:18:44.950Z,2.40
2019-01-25T14:21:17.835Z,2.40
2019-01-25T14:23:52.848Z,2.40
2019-01-25T14:26:27.595Z,2.40
2019-01-25T14:29:02.671Z,2.50
2019-01-25T14:31:38.907Z,2.60
2019-01-25T14:34:13.807Z,2.60
2019-01-25T14:36:48.897Z,2.70
2019-01-25T14:39:23.935Z,2.70
2019-01-25T14:41:58.699Z,2.70
2019-01-25T14:44:33.661Z,2.70
2019-01-25T14:47:08.987Z,3.10
2019-01-25T14:49:44.041Z,2.90
2019-01-25T14:52:19.102Z,2.80
2019-01-25T14:54:53.999Z,2.80
2019-01-25T14:57:29.108Z,2.70
2019-01-25T15:00:05.324Z,2.80
2019-01-25T15:02:40.490Z,2.80
2019-01-25T15:05:17.533Z,2.70
2019-01-25T15:07:52.628Z,2.70
2019-01-25T15:10:28.837Z,2.70
2019-01-25T15:13:04.172Z,2.80
2019-01-25T15:16:23.597Z,2.80
2019-01-25T15:18:58.372Z,2.80
2019-01-25T15:21:33.155Z,2.70
2019-01-25T15:24:07.942Z,2.80
2019-01-25T15:26:42.663Z,2.80
2019-01-25T15:29:17.383Z,2.90
2019-01-25T15:31:52.168Z,2.90
2019-01-25T15:34:26.936Z,2.90
2019-01-25T15:37:01.683Z,2.80
2019-01-25T15:39:36.455Z,2.80
2019-01-25T15:42:11.323Z,2.70
2019-01-25T15:44:46.027Z,2.70
2019-01-25T15:47:20.819Z,2.80
2019-01-25T15:49:55.648Z,2.70
2019-01-25T15:52:30.471Z,2.60
2019-01-25T15:55:06.807Z,2.70
2019-01-25T15:57:41.518Z,2.50
2019-01-25T16:00:18.456Z,2.60
2019-01-25T16:02:53.427Z,2.60
2019-01-25T16:05:28.283Z,2.60
2019-01-25T16:08:03.275Z,2.70
2019-01-25T16:10:38.066Z,2.80
2019-01-25T16:13:12.855Z,2.70
2019-01-25T16:15:47.562Z,2.70
2019-01-25T16:18:22.331Z,2.80
2019-01-25T16:20:57.303Z,2.80
2019-01-25T16:23:32.203Z,2.90
2019-01-25T16:26:06.915Z,2.90
2019-01-25T16:28:42.614Z,2.80
2019-01-25T16:31:17.657Z,2.80
2019-01-25T16:33:52.387Z,2.80
2019-01-25T16:36:27.187Z,2.80
2019-01-25T16:39:02.220Z,2.80
2019-01-25T16:41:37.963Z,2.80
2019-01-25T16:44:12.755Z,2.80
2019-01-25T16:46:47.519Z,2.80
2019-01-25T16:49:22.219Z,2.80
2019-01-25T16:51:56.938Z,2.80
2019-01-25T16:54:31.648Z,2.80
2019-01-25T16:57:06.518Z,2.90
2019-01-25T16:59:41.235Z,2.80
2019-01-25T17:02:16.022Z,2.80
2019-01-25T17:04:50.793Z,2.70
2019-01-25T17:07:25.503Z,2.70
2019-01-25T17:10:00.253Z,2.70
2019-01-25T17:12:35.014Z,2.70
2019-01-25T17:15:10.059Z,2.70
2019-01-25T17:17:44.875Z,2.60
2019-01-25T17:20:21.505Z,2.70
2019-01-25T17:22:56.607Z,2.70
2019-01-25T17:25:31.310Z,2.70
2019-01-25T17:28:07.647Z,2.70
2019-01-25T17:30:42.896Z,2.80
2019-01-25T17:33:17.779Z,2.80
2019-01-25T17:35:52.481Z,2.90
2019-01-25T17:38:28.355Z,2.90
2019-01-25T17:41:03.135Z,3.00
2019-01-25T17:43:38.883Z,2.90
2019-01-25T17:46:13.588Z,2.90
2019-01-25T17:48:49.662Z,2.90
2019-01-25T17:51:24.535Z,2.80
2019-01-25T17:53:59.375Z,2.90
2019-01-25T17:56:34.187Z,2.90
2019-01-25T17:59:08.951Z,2.80
2019-01-25T18:01:43.761Z,2.90
2019-01-25T18:04:18.685Z,2.80
2019-01-25T18:06:53.446Z,2.80
2019-01-25T18:09:28.284Z,2.70
2019-01-25T18:12:03.100Z,2.80
2019-01-25T18:14:38.075Z,2.90
2019-01-25T18:17:12.892Z,2.80
2019-01-25T18:19:47.673Z,2.90
2019-01-25T18:22:22.564Z,2.90
2019-01-25T18:24:57.395Z,2.90
2019-01-25T18:27:32.228Z,3.00
2019-01-25T18:30:14.138Z,2.90
2019-01-25T18:32:49.081Z,2.90
2019-01-25T18:35:24.009Z,2.90
2019-01-25T18:37:58.926Z,3.00
2019-01-25T18:40:33.677Z,3.00
2019-01-25T18:43:08.771Z,2.90
2019-01-25T18:45:43.668Z,3.00
2019-01-25T18:48:18.484Z,3.10
2019-01-25T18:50:53.393Z,3.00
2019-01-25T18:53:28.448Z,3.00
2019-01-25T18:56:03.528Z,2.90
2019-01-25T18:58:38.340Z,2.90
2019-01-25T19:01:13.158Z,2.90
2019-01-25T19:03:48.065Z,3.00
2019-01-25T19:06:22.972Z,3.00
2019-01-25T19:08:57.781Z,3.00
2019-01-25T19:11:32.564Z,2.90
2019-01-25T19:14:07.652Z,3.00
2019-01-25T19:16:42.504Z,2.90
2019-01-25T19:19:17.420Z,3.00
2019-01-25T19:21:52.169Z,2.90
2019-01-25T19:24:26.969Z,3.00
2019-01-25T19:27:01.804Z,3.00
2019-01-25T19:29:37.529Z,3.00
2019-01-25T19:32:12.396Z,3.00
2019-01-25T19:34:47.148Z,3.00
2019-01-25T19:37:21.893Z,3.10
2019-01-25T19:39:56.714Z,3.00
2019-01-25T19:42:31.604Z,3.00
2019-01-25T19:45:11.827Z,3.00
2019-01-25T19:47:43.532Z,3.00
2019-01-25T19:50:18.776Z,3.10
2019-01-25T19:52:53.766Z,3.10
2019-01-25T19:55:28.812Z,3.10
2019-01-25T19:58:04.364Z,3.10
2019-01-25T20:00:40.564Z,3.10
2019-01-25T20:03:15.451Z,3.10
2019-01-25T20:05:50.868Z,3.10
2019-01-25T20:08:25.752Z,3.10
2019-01-25T20:11:00.604Z,3.10
2019-01-25T20:13:35.675Z,3.10
2019-01-25T20:16:10.422Z,3.10
2019-01-25T20:18:45.246Z,3.10
2019-01-25T20:21:20.172Z,3.10
2019-01-25T20:23:54.920Z,3.10
2019-01-25T20:26:29.675Z,3.20
2019-01-25T20:29:04.567Z,3.20
2019-01-25T20:31:39.396Z,3.10
2019-01-25T20:34:14.137Z,3.10
2019-01-25T20:36:49.073Z,3.20
2019-01-25T20:39:23.809Z,3.30
2019-01-25T20:41:58.661Z,3.20
2019-01-25T20:44:33.403Z,3.20
2019-01-25T20:47:08.326Z,3.20
2019-01-25T20:49:43.135Z,3.20
2019-01-25T20:52:17.968Z,3.20
2019-01-25T20:54:52.784Z,3.20
2019-01-25T20:57:27.614Z,3.20
2019-01-25T21:00:08.358Z,3.30
2019-01-25T21:02:39.093Z,3.20
2019-01-25T21:05:14.196Z,3.20
2019-01-25T21:07:50.084Z,3.10
2019-01-25T21:10:25.110Z,3.10
2019-01-25T21:12:59.868Z,3.00
2019-01-25T21:15:35.559Z,2.90
2019-01-25T21:18:10.772Z,2.80
2019-01-25T21:20:47.032Z,2.80
2019-01-25T21:23:21.942Z,2.90
2019-01-25T21:25:56.925Z,2.90
2019-01-25T21:28:31.769Z,3.00
2019-01-25T21:31:06.652Z,2.90
2019-01-25T21:33:41.404Z,2.90
2019-01-25T21:36:16.217Z,3.10
2019-01-25T21:38:50.967Z,3.00
2019-01-25T21:41:25.791Z,3.00
2019-01-25T21:44:00.568Z,3.10
2019-01-25T21:46:40.046Z,3.10
2019-01-25T21:49:11.922Z,3.10
2019-01-25T21:51:46.743Z,3.00
2019-01-25T21:54:21.506Z,3.10
2019-01-25T21:56:56.401Z,3.20
2019-01-25T21:59:31.112Z,3.20
2019-01-25T22:02:06.011Z,3.20
2019-01-25T22:04:40.864Z,3.20
2019-01-25T22:07:15.733Z,3.20
2019-01-25T22:09:51.651Z,3.20
2019-01-25T22:12:26.511Z,3.20
2019-01-25T22:15:01.230Z,3.30
2019-01-25T22:17:35.974Z,3.30
2019-01-25T22:20:14.426Z,3.30
2019-01-25T22:22:49.311Z,3.30
2019-01-25T22:25:24.249Z,3.30
2019-01-25T22:27:59.584Z,3.40
2019-01-25T22:30:34.542Z,3.30
2019-01-25T22:33:09.333Z,3.30
2019-01-25T22:35:44.201Z,3.30
2019-01-25T22:38:19.095Z,3.40
2019-01-25T22:40:53.903Z,3.40
2019-01-25T22:43:28.683Z,3.40
2019-01-25T22:46:03.657Z,3.40
2019-01-25T22:48:38.527Z,3.50
2019-01-25T22:51:13.409Z,3.40
2019-01-25T22:53:48.252Z,3.40
2019-01-25T22:56:23.058Z,3.50
2019-01-25T22:58:57.827Z,3.40
2019-01-25T23:01:35.114Z,3.40
2019-01-25T23:04:46.999Z,3.40
2019-01-25T23:07:27.423Z,3.40
2019-01-25T23:10:07.467Z,3.50
2019-01-25T23:12:42.235Z,3.50
2019-01-25T23:15:18.119Z,3.40
2019-01-25T23:17:52.970Z,3.40
2019-01-25T23:20:27.902Z,3.50
2019-01-25T23:23:02.770Z,3.40
2019-01-25T23:25:37.486Z,3.50
2019-01-25T23:28:12.195Z,3.40
2019-01-25T23:30:47.018Z,3.40
2019-01-25T23:33:22.808Z,3.50
2019-01-25T23:35:57.671Z,3.50
2019-01-25T23:38:32.464Z,3.50
2019-01-25T23:41:07.356Z,3.50
2019-01-25T23:43:42.194Z,3.60
2019-01-25T23:46:17.075Z,3.50
2019-01-25T23:48:51.848Z,3.60
2019-01-25T23:51:26.635Z,3.60
2019-01-25T23:54:01.406Z,3.50
2019-01-25T23:56:36.279Z,3.60
2019-01-25T23:59:11.059Z,3.60
